createdAt,value
2023-05-11T00:00:46.590Z,48.80
2023-05-11T00:03:15.852Z,48.90
2023-05-11T00:05:49.434Z,48.90
2023-05-11T00:08:17.501Z,49.00
2023-05-11T00:10:49.020Z,49.00
2023-05-11T00:13:16.755Z,49.00
2023-05-11T00:15:44.921Z,49.10
2023-05-11T00:18:12.753Z,48.90
2023-05-11T00:20:42.237Z,49.00
2023-05-11T00:23:10.061Z,49.00
2023-05-11T00:25:41.831Z,49.00
2023-05-11T00:28:10.947Z,49.10
2023-05-11T00:30:41.372Z,49.20
2023-05-11T00:33:09.135Z,49.40
2023-05-11T00:35:37.517Z,49.50
2023-05-11T00:38:05.196Z,49.70
2023-05-11T00:40:33.488Z,50.10
2023-05-11T00:43:01.768Z,50.50
2023-05-11T00:45:31.076Z,50.70
2023-05-11T00:48:00.409Z,51.10
2023-05-11T00:50:29.378Z,51.20
2023-05-11T00:52:58.998Z,51.20
2023-05-11T00:55:28.908Z,51.40
2023-05-11T00:57:56.748Z,51.40
2023-05-11T01:00:25.040Z,51.50
2023-05-11T01:02:53.790Z,51.50
2023-05-11T01:05:22.054Z,51.70
2023-05-11T01:08:05.885Z,51.70
2023-05-11T01:10:59.339Z,51.80
2023-05-11T01:13:53.005Z,51.80
2023-05-11T01:16:25.268Z,52.10
2023-05-11T01:19:07.297Z,52.50
2023-05-11T01:21:36.241Z,52.80
2023-05-11T01:24:06.819Z,53.10
2023-05-11T01:26:40.707Z,53.30
2023-05-11T01:29:09.269Z,53.20
2023-05-11T01:31:43.111Z,53.10
2023-05-11T01:34:19.643Z,53.40
2023-05-11T01:37:04.471Z,53.50
2023-05-11T01:39:39.548Z,53.60
2023-05-11T01:42:10.459Z,53.60
2023-05-11T01:44:42.830Z,53.60
2023-05-11T01:47:13.599Z,53.70
2023-05-11T01:49:44.501Z,53.50
2023-05-11T01:52:16.139Z,53.60
2023-05-11T01:54:44.956Z,53.40
2023-05-11T01:57:13.975Z,53.40
2023-05-11T01:59:42.690Z,53.30
2023-05-11T02:02:12.543Z,53.50
2023-05-11T02:04:41.882Z,54.20
2023-05-11T02:07:12.494Z,54.40
2023-05-11T02:09:41.444Z,54.80
2023-05-11T02:12:11.742Z,55.00
2023-05-11T02:14:42.094Z,55.50
2023-05-11T02:17:11.640Z,55.40
2023-05-11T02:19:43.413Z,55.40
2023-05-11T02:22:15.073Z,55.30
2023-05-11T02:24:43.688Z,55.30
2023-05-11T02:27:13.568Z,55.30
2023-05-11T02:29:41.364Z,55.30
2023-05-11T02:32:20.591Z,55.30
2023-05-11T02:35:01.758Z,55.30
2023-05-11T02:37:33.979Z,55.40
2023-05-11T02:40:10.917Z,55.30
2023-05-11T02:42:42.162Z,55.40
2023-05-11T02:45:12.520Z,55.50
2023-05-11T02:47:53.248Z,55.70
2023-05-11T02:50:28.590Z,55.70
2023-05-11T02:53:02.506Z,55.70
2023-05-11T02:55:31.633Z,55.80
2023-05-11T02:58:00.812Z,55.80
2023-05-11T03:00:29.492Z,55.90
2023-05-11T03:02:58.502Z,56.00
2023-05-11T03:05:26.334Z,56.10
2023-05-11T03:07:58.070Z,56.20
2023-05-11T03:10:27.843Z,56.50
2023-05-11T03:12:56.626Z,56.60
2023-05-11T03:15:27.281Z,56.60
2023-05-11T03:17:56.378Z,56.70
2023-05-11T03:20:25.754Z,56.60
2023-05-11T03:22:55.101Z,56.80
2023-05-11T03:25:25.340Z,56.90
2023-05-11T03:27:54.952Z,57.00
2023-05-11T03:30:24.466Z,57.20
2023-05-11T03:32:56.003Z,57.40
2023-05-11T03:35:29.792Z,57.40
2023-05-11T03:37:58.942Z,57.40
2023-05-11T03:40:31.897Z,57.50
2023-05-11T03:43:04.259Z,57.60
2023-05-11T03:45:35.317Z,57.60
2023-05-11T03:48:07.443Z,57.80
2023-05-11T03:50:36.732Z,58.00
2023-05-11T03:53:06.455Z,58.10
2023-05-11T03:55:36.264Z,58.20
2023-05-11T03:58:10.832Z,58.30
2023-05-11T04:00:43.482Z,58.40
2023-05-11T04:03:11.745Z,58.30
2023-05-11T04:05:41.698Z,58.40
2023-05-11T04:08:13.503Z,58.20
2023-05-11T04:10:42.425Z,58.10
2023-05-11T04:13:10.246Z,58.10
2023-05-11T04:15:38.476Z,58.10
2023-05-11T04:18:07.251Z,58.30
2023-05-11T04:20:35.429Z,58.30
2023-05-11T04:23:04.042Z,58.50
2023-05-11T04:25:32.679Z,58.70
2023-05-11T04:28:00.706Z,58.70
2023-05-11T04:30:29.296Z,58.90
2023-05-11T04:32:57.695Z,59.00
2023-05-11T04:35:26.981Z,59.30
2023-05-11T04:37:55.317Z,59.10
2023-05-11T04:40:23.666Z,58.60
2023-05-11T04:42:52.374Z,58.40
2023-05-11T04:45:22.236Z,58.50
2023-05-11T04:47:51.857Z,58.30
2023-05-11T04:50:27.040Z,58.50
2023-05-11T04:52:56.275Z,58.60
2023-05-11T04:55:24.500Z,58.60
2023-05-11T04:57:54.531Z,58.60
2023-05-11T05:00:23.183Z,58.70
2023-05-11T05:02:53.907Z,59.20
2023-05-11T05:05:22.452Z,58.70
2023-05-11T05:07:51.327Z,57.90
2023-05-11T05:10:19.991Z,57.60
2023-05-11T05:12:48.075Z,57.50
2023-05-11T05:15:16.763Z,57.70
2023-05-11T05:17:46.402Z,57.90
2023-05-11T05:20:16.352Z,57.90
2023-05-11T05:22:46.126Z,57.90
2023-05-11T05:25:14.480Z,57.90
2023-05-11T05:27:42.097Z,58.00
2023-05-11T05:30:16.016Z,57.80
2023-05-11T05:32:44.094Z,57.60
2023-05-11T05:35:12.560Z,57.70
2023-05-11T05:37:41.454Z,57.70
2023-05-11T05:40:10.798Z,57.10
2023-05-11T05:42:43.904Z,56.60
2023-05-11T05:45:15.870Z,56.50
2023-05-11T05:47:44.064Z,56.30
2023-05-11T05:50:12.782Z,56.30
2023-05-11T05:52:42.282Z,56.30
2023-05-11T05:55:11.911Z,56.20
2023-05-11T05:57:41.026Z,56.20
2023-05-11T06:00:11.691Z,56.20
2023-05-11T06:02:42.342Z,56.30
2023-05-11T06:05:19.253Z,56.30
2023-05-11T06:07:58.029Z,56.00
2023-05-11T06:10:35.562Z,55.90
2023-05-11T06:13:03.609Z,55.80
2023-05-11T06:15:31.794Z,55.60
2023-05-11T06:18:08.289Z,55.80
2023-05-11T06:20:37.376Z,55.60
2023-05-11T06:23:08.224Z,54.50
2023-05-11T06:25:40.240Z,54.20
2023-05-11T06:28:09.256Z,54.20
2023-05-11T06:30:39.037Z,54.00
2023-05-11T06:33:09.316Z,53.80
2023-05-11T06:35:39.809Z,53.80
2023-05-11T06:38:09.935Z,53.80
2023-05-11T06:40:38.884Z,53.70
2023-05-11T06:43:06.942Z,53.80
2023-05-11T06:45:47.986Z,54.10
2023-05-11T06:48:16.221Z,54.30
2023-05-11T06:50:44.554Z,54.50
2023-05-11T06:53:17.514Z,54.50
2023-05-11T06:55:45.999Z,54.40
2023-05-11T06:58:14.096Z,54.10
2023-05-11T07:00:42.601Z,53.80
2023-05-11T07:03:10.586Z,53.70
2023-05-11T07:05:39.816Z,53.30
2023-05-11T07:08:07.619Z,52.30
2023-05-11T07:10:36.397Z,51.70
2023-05-11T07:13:04.206Z,51.60
2023-05-11T07:15:33.150Z,51.80
2023-05-11T07:18:01.790Z,52.20
2023-05-11T07:20:30.108Z,52.00
2023-05-11T07:23:01.996Z,51.60
2023-05-11T07:25:31.642Z,51.70
2023-05-11T07:28:01.027Z,51.50
2023-05-11T07:30:29.206Z,51.40
2023-05-11T07:32:57.033Z,51.20
2023-05-11T07:35:25.818Z,51.10
2023-05-11T07:37:53.680Z,51.00
2023-05-11T07:40:21.843Z,50.90
2023-05-11T07:42:50.062Z,51.00
2023-05-11T07:45:18.649Z,51.10
2023-05-11T07:47:46.382Z,51.10
2023-05-11T07:50:14.691Z,50.10
2023-05-11T07:52:42.502Z,49.60
2023-05-11T07:55:10.813Z,49.10
2023-05-11T07:57:38.613Z,49.00
2023-05-11T08:00:08.370Z,49.10
2023-05-11T08:02:44.326Z,48.80
2023-05-11T08:05:12.953Z,48.90
2023-05-11T08:07:41.628Z,49.60
2023-05-11T08:10:10.293Z,48.80
2023-05-11T08:12:39.255Z,47.30
2023-05-11T08:15:07.417Z,46.20
2023-05-11T08:17:36.131Z,45.10
2023-05-11T08:20:05.221Z,44.40
2023-05-11T08:22:33.866Z,44.20
2023-05-11T08:25:01.959Z,43.70
2023-05-11T08:27:30.293Z,44.10
2023-05-11T08:29:58.990Z,44.40
2023-05-11T08:32:27.815Z,44.80
2023-05-11T08:34:55.817Z,45.40
2023-05-11T08:37:24.409Z,45.40
2023-05-11T08:39:52.360Z,45.30
2023-05-11T08:42:23.211Z,45.10
2023-05-11T08:44:55.720Z,44.70
2023-05-11T08:47:24.684Z,44.60
2023-05-11T08:49:53.500Z,43.50
2023-05-11T08:52:22.005Z,42.90
2023-05-11T08:54:49.902Z,41.90
2023-05-11T08:57:18.524Z,41.60
2023-05-11T08:59:47.232Z,41.20
2023-05-11T09:02:19.076Z,41.60
2023-05-11T09:04:48.857Z,40.20
2023-05-11T09:07:18.330Z,39.50
2023-05-11T09:09:47.474Z,37.90
2023-05-11T09:12:17.361Z,38.20
2023-05-11T09:14:47.035Z,38.10
2023-05-11T09:17:15.652Z,37.40
2023-05-11T09:20:00.362Z,36.60
2023-05-11T09:22:31.379Z,35.50
2023-05-11T09:25:04.402Z,35.20
2023-05-11T09:27:32.698Z,35.00
2023-05-11T09:33:00.147Z,36.10
2023-05-11T09:35:31.639Z,36.10
2023-05-11T09:38:11.949Z,35.50
2023-05-11T09:41:03.396Z,35.10
2023-05-11T09:43:31.741Z,34.00
2023-05-11T09:46:07.843Z,34.50
2023-05-11T09:48:36.474Z,34.50
2023-05-11T09:51:06.714Z,35.00
2023-05-11T09:53:43.545Z,34.70
2023-05-11T09:56:12.447Z,34.20
2023-05-11T09:58:51.648Z,34.30
2023-05-11T10:01:29.918Z,33.60
2023-05-11T10:04:13.204Z,34.30
2023-05-11T10:06:53.990Z,34.50
2023-05-11T10:09:26.384Z,34.40
2023-05-11T10:11:55.731Z,32.80
2023-05-11T10:14:25.086Z,32.70
2023-05-11T10:16:54.220Z,31.80
2023-05-11T10:19:22.934Z,31.40
2023-05-11T10:21:53.103Z,31.50
2023-05-11T10:24:21.793Z,31.70
2023-05-11T10:26:51.158Z,31.70
2023-05-11T10:29:20.308Z,32.30
2023-05-11T10:31:51.514Z,32.40
2023-05-11T10:34:20.830Z,32.20
2023-05-11T10:36:49.000Z,32.20
2023-05-11T10:39:17.677Z,31.90
2023-05-11T10:42:17.153Z,31.50
2023-05-11T10:45:03.934Z,31.50
2023-05-11T10:48:16.348Z,31.40
2023-05-11T10:51:12.543Z,30.50
2023-05-11T10:54:06.991Z,30.50
2023-05-11T10:56:38.348Z,30.10
2023-05-11T10:59:44.771Z,28.60
2023-05-11T11:02:14.042Z,29.40
2023-05-11T11:04:52.814Z,30.40
2023-05-11T11:07:21.841Z,30.30
2023-05-11T11:10:00.706Z,31.10
2023-05-11T11:12:30.131Z,31.90
2023-05-11T11:15:00.145Z,32.20
2023-05-11T11:17:35.225Z,32.60
2023-05-11T11:20:07.900Z,33.00
2023-05-11T11:22:37.291Z,33.10
2023-05-11T11:25:08.196Z,33.20
2023-05-11T11:27:45.433Z,33.40
2023-05-11T11:30:41.828Z,33.40
2023-05-11T11:33:10.028Z,33.30
2023-05-11T11:35:43.641Z,32.60
2023-05-11T11:38:13.521Z,31.50
2023-05-11T11:40:51.266Z,31.20
2023-05-11T11:43:23.207Z,30.80
2023-05-11T11:45:59.869Z,30.70
2023-05-11T11:48:36.332Z,31.00
2023-05-11T11:51:12.447Z,31.60
2023-05-11T11:53:44.895Z,32.30
2023-05-11T11:56:15.586Z,33.00
2023-05-11T11:58:44.970Z,33.20
2023-05-11T12:01:18.047Z,33.30
2023-05-11T12:03:53.569Z,33.30
2023-05-11T12:06:26.661Z,33.30
2023-05-11T12:08:55.408Z,33.40
2023-05-11T12:11:24.082Z,33.30
2023-05-11T12:13:52.479Z,33.50
2023-05-11T12:16:20.770Z,33.70
2023-05-11T12:19:01.034Z,33.70
2023-05-11T12:21:32.327Z,33.60
2023-05-11T12:24:01.598Z,33.50
2023-05-11T12:26:30.792Z,33.40
2023-05-11T12:29:13.463Z,33.50
2023-05-11T12:31:43.540Z,33.30
2023-05-11T12:34:16.615Z,33.20
2023-05-11T12:36:46.023Z,33.30
2023-05-11T12:39:21.641Z,33.30
2023-05-11T12:41:51.896Z,33.40
2023-05-11T12:44:22.021Z,33.40
2023-05-11T12:46:51.482Z,33.50
2023-05-11T12:52:04.411Z,33.70
2023-05-11T12:54:34.224Z,33.80
2023-05-11T12:57:04.259Z,33.90
2023-05-11T12:59:41.455Z,33.80
2023-05-11T13:02:17.528Z,33.80
2023-05-11T13:04:47.191Z,33.80
2023-05-11T13:07:24.250Z,33.90
2023-05-11T13:10:00.350Z,34.10
2023-05-11T13:12:32.239Z,34.10
2023-05-11T13:15:13.061Z,34.20
2023-05-11T13:17:43.820Z,34.50
2023-05-11T13:20:24.315Z,34.80
2023-05-11T13:22:52.800Z,35.00
2023-05-11T13:25:22.045Z,35.20
2023-05-11T13:27:50.189Z,35.30
2023-05-11T13:30:21.107Z,35.40
2023-05-11T13:32:49.102Z,35.20
2023-05-11T13:35:18.671Z,35.10
2023-05-11T13:37:47.354Z,34.80
2023-05-11T13:40:15.828Z,34.90
2023-05-11T13:42:43.698Z,35.00
2023-05-11T13:45:12.483Z,35.20
2023-05-11T13:47:41.139Z,35.40
2023-05-11T13:50:11.896Z,35.60
2023-05-11T13:52:40.624Z,35.70
2023-05-11T13:55:10.289Z,35.90
2023-05-11T13:57:38.313Z,36.00
2023-05-11T14:00:09.569Z,36.10
2023-05-11T14:02:40.588Z,36.30
2023-05-11T14:05:10.688Z,36.30
2023-05-11T14:07:46.230Z,36.40
2023-05-11T14:10:17.227Z,36.40
2023-05-11T14:12:45.987Z,36.40
2023-05-11T14:15:14.832Z,36.50
2023-05-11T14:17:43.767Z,36.60
2023-05-11T14:20:12.965Z,36.70
2023-05-11T14:22:41.852Z,36.70
2023-05-11T14:25:10.295Z,36.70
2023-05-11T14:27:38.098Z,36.80
2023-05-11T14:30:08.282Z,37.00
2023-05-11T14:32:36.192Z,37.10
2023-05-11T14:35:04.649Z,37.20
2023-05-11T14:37:32.602Z,37.30
2023-05-11T14:40:01.131Z,37.30
2023-05-11T14:42:30.015Z,37.30
2023-05-11T14:44:58.311Z,37.30
2023-05-11T14:47:26.210Z,37.50
2023-05-11T14:49:54.577Z,37.50
2023-05-11T14:52:22.352Z,37.60
2023-05-11T14:54:50.646Z,37.60
2023-05-11T14:57:18.577Z,37.60
2023-05-11T14:59:58.385Z,37.70
2023-05-11T15:02:29.847Z,37.70
2023-05-11T15:04:58.263Z,37.80
2023-05-11T15:07:27.085Z,37.90
2023-05-11T15:09:56.157Z,38.00
2023-05-11T15:12:25.180Z,38.20
2023-05-11T15:14:53.590Z,38.40
2023-05-11T15:17:22.193Z,38.40
2023-05-11T15:19:57.746Z,38.50
2023-05-11T15:22:25.699Z,38.50
2023-05-11T15:24:54.633Z,38.50
2023-05-11T15:27:22.878Z,38.50
2023-05-11T15:29:51.107Z,38.50
2023-05-11T15:32:18.918Z,38.50
2023-05-11T15:34:58.505Z,38.50
2023-05-11T15:37:27.930Z,38.50
2023-05-11T15:39:56.426Z,38.60
2023-05-11T15:42:24.433Z,38.50
2023-05-11T15:44:52.981Z,38.50
2023-05-11T15:47:20.940Z,38.50
2023-05-11T15:49:49.128Z,38.60
2023-05-11T15:52:17.195Z,38.60
2023-05-11T15:54:46.417Z,38.70
2023-05-11T15:57:14.379Z,38.70
2023-05-11T15:59:43.072Z,38.70
2023-05-11T16:02:12.949Z,38.90
2023-05-11T16:04:41.216Z,38.90
2023-05-11T16:07:09.103Z,39.00
2023-05-11T16:09:37.544Z,39.00
2023-05-11T16:12:05.714Z,39.10
2023-05-11T16:14:34.919Z,39.00
2023-05-11T16:17:03.591Z,39.10
2023-05-11T16:19:32.764Z,39.10
2023-05-11T16:22:00.619Z,39.20
2023-05-11T16:24:32.178Z,39.20
2023-05-11T16:27:01.439Z,39.20
2023-05-11T16:29:30.027Z,39.30
2023-05-11T16:31:58.304Z,39.30
2023-05-11T16:34:28.187Z,39.30
2023-05-11T16:36:58.597Z,39.40
2023-05-11T16:39:27.928Z,39.40
2023-05-11T16:41:56.752Z,39.40
2023-05-11T16:44:25.205Z,39.40
2023-05-11T16:46:53.411Z,39.30
2023-05-11T16:49:23.549Z,39.40
2023-05-11T16:51:52.834Z,39.40
2023-05-11T16:54:21.393Z,39.40
2023-05-11T16:56:49.499Z,39.40
2023-05-11T16:59:17.907Z,39.40
2023-05-11T17:01:46.930Z,39.40
2023-05-11T17:04:15.184Z,39.40
2023-05-11T17:06:43.161Z,39.40
2023-05-11T17:09:11.487Z,39.50
2023-05-11T17:11:41.712Z,39.50
2023-05-11T17:14:10.401Z,39.70
2023-05-11T17:16:40.951Z,39.70
2023-05-11T17:19:09.885Z,39.80
2023-05-11T17:21:38.431Z,39.80
2023-05-11T17:24:09.111Z,39.80
2023-05-11T17:26:46.992Z,39.80
2023-05-11T17:29:17.599Z,39.90
2023-05-11T17:31:49.817Z,39.90
2023-05-11T17:34:22.165Z,40.00
2023-05-11T17:36:53.279Z,40.00
2023-05-11T17:39:21.898Z,40.10
2023-05-11T17:41:49.910Z,40.20
2023-05-11T17:44:18.549Z,40.20
2023-05-11T17:46:46.754Z,40.30
2023-05-11T17:49:15.129Z,40.40
2023-05-11T17:51:43.011Z,40.50
2023-05-11T17:54:12.339Z,40.50
2023-05-11T17:56:45.267Z,40.50
2023-05-11T17:59:14.311Z,40.50
2023-05-11T18:01:43.021Z,40.60
2023-05-11T18:04:11.644Z,40.60
2023-05-11T18:06:39.911Z,40.70
2023-05-11T18:09:08.527Z,40.70
2023-05-11T18:11:36.371Z,40.80
2023-05-11T18:14:04.494Z,40.90
2023-05-11T18:16:35.182Z,40.90
2023-05-11T18:19:03.777Z,41.00
2023-05-11T18:21:32.836Z,41.00
2023-05-11T18:24:02.298Z,41.10
2023-05-11T18:26:30.975Z,41.10
2023-05-11T18:29:00.358Z,41.20
2023-05-11T18:31:30.562Z,41.40
2023-05-11T18:33:59.496Z,41.40
2023-05-11T18:36:28.505Z,41.50
2023-05-11T18:38:57.033Z,41.60
2023-05-11T18:41:30.992Z,41.60
2023-05-11T18:43:59.222Z,41.70
2023-05-11T18:46:28.352Z,41.90
2023-05-11T18:48:56.911Z,42.00
2023-05-11T18:51:26.488Z,42.00
2023-05-11T18:53:56.482Z,42.40
2023-05-11T18:56:24.493Z,42.80
2023-05-11T18:58:54.034Z,42.80
2023-05-11T19:01:27.878Z,43.00
2023-05-11T19:03:59.044Z,43.00
2023-05-11T19:06:27.368Z,43.00
2023-05-11T19:08:56.263Z,43.20
2023-05-11T19:11:26.094Z,43.30
2023-05-11T19:13:56.819Z,43.40
2023-05-11T19:16:25.100Z,43.50
2023-05-11T19:18:54.134Z,43.70
2023-05-11T19:21:22.902Z,43.70
2023-05-11T19:23:51.776Z,43.80
2023-05-11T19:26:20.119Z,43.90
2023-05-11T19:28:50.714Z,43.90
2023-05-11T19:31:19.167Z,43.90
2023-05-11T19:33:48.728Z,44.00
2023-05-11T19:36:17.119Z,44.00
2023-05-11T19:38:46.087Z,44.00
2023-05-11T19:41:15.378Z,44.10
2023-05-11T19:43:45.117Z,44.10
2023-05-11T19:46:13.383Z,44.20
2023-05-11T19:48:42.099Z,44.30
2023-05-11T19:51:11.403Z,44.30
2023-05-11T19:53:40.325Z,44.40
2023-05-11T19:56:10.062Z,44.40
2023-05-11T19:58:40.358Z,44.50
2023-05-11T20:01:09.619Z,44.60
2023-05-11T20:03:40.514Z,44.40
2023-05-11T20:06:08.624Z,44.60
2023-05-11T20:08:38.064Z,44.60
2023-05-11T20:11:07.202Z,44.70
2023-05-11T20:13:35.796Z,44.80
2023-05-11T20:16:04.823Z,44.80
2023-05-11T20:18:34.248Z,44.80
2023-05-11T20:21:02.092Z,44.90
2023-05-11T20:23:31.607Z,45.00
2023-05-11T20:26:01.865Z,45.10
2023-05-11T20:28:29.957Z,45.20
2023-05-11T20:30:59.134Z,45.30
2023-05-11T20:35:59.275Z,45.40
2023-05-11T20:38:27.861Z,45.40
2023-05-11T20:40:59.255Z,45.40
2023-05-11T20:43:27.481Z,45.60
2023-05-11T20:45:55.901Z,45.70
2023-05-11T20:48:36.311Z,45.90
2023-05-11T20:51:07.458Z,46.10
2023-05-11T20:53:35.758Z,46.20
2023-05-11T20:56:03.712Z,46.40
2023-05-11T20:58:31.893Z,46.50
2023-05-11T21:01:01.066Z,46.60
2023-05-11T21:03:29.493Z,46.70
2023-05-11T21:05:57.496Z,46.70
2023-05-11T21:08:26.075Z,46.70
2023-05-11T21:10:53.832Z,46.70
2023-05-11T21:13:21.947Z,46.80
2023-05-11T21:15:49.659Z,46.80
2023-05-11T21:18:18.136Z,46.90
2023-05-11T21:20:45.947Z,47.00
2023-05-11T21:23:14.651Z,47.10
2023-05-11T21:25:42.843Z,47.30
2023-05-11T21:28:11.342Z,47.50
2023-05-11T21:30:39.323Z,47.80
2023-05-11T21:33:07.743Z,48.00
2023-05-11T21:35:35.432Z,48.20
2023-05-11T21:38:03.801Z,48.30
2023-05-11T21:40:31.589Z,48.20
2023-05-11T21:42:59.976Z,48.30
2023-05-11T21:45:27.749Z,48.30
2023-05-11T21:47:55.928Z,48.20
2023-05-11T21:50:23.565Z,48.20
2023-05-11T21:52:53.844Z,48.40
2023-05-11T21:55:21.681Z,48.60
2023-05-11T21:57:50.706Z,48.80
2023-05-11T22:00:19.644Z,48.90
2023-05-11T22:02:49.011Z,49.10
2023-05-11T22:05:17.298Z,49.40
2023-05-11T22:07:45.622Z,49.50
2023-05-11T22:10:13.550Z,49.70
2023-05-11T22:12:41.727Z,49.80
2023-05-11T22:15:10.248Z,50.10
2023-05-11T22:17:38.841Z,50.40
2023-05-11T22:20:07.517Z,50.70
2023-05-11T22:22:37.606Z,50.70
2023-05-11T22:25:05.630Z,51.00
2023-05-11T22:27:34.079Z,50.90
2023-05-11T22:30:02.002Z,51.00
2023-05-11T22:32:32.286Z,51.20
2023-05-11T22:35:01.902Z,51.20
2023-05-11T22:37:33.828Z,51.20
2023-05-11T22:40:01.620Z,51.40
2023-05-11T22:42:31.163Z,51.40
2023-05-11T22:44:59.338Z,51.50
2023-05-11T22:47:28.195Z,51.80
2023-05-11T22:49:56.534Z,52.10
2023-05-11T22:52:25.011Z,52.30
2023-05-11T22:54:58.176Z,52.50
2023-05-11T22:57:27.335Z,52.70
2023-05-11T22:59:55.289Z,52.90
2023-05-11T23:02:23.905Z,52.90
2023-05-11T23:04:52.728Z,52.90
2023-05-11T23:07:21.212Z,52.80
2023-05-11T23:09:52.741Z,52.80
2023-05-11T23:12:21.008Z,52.90
2023-05-11T23:14:48.914Z,52.90
2023-05-11T23:17:39.055Z,53.00
2023-05-11T23:20:07.626Z,52.90
2023-05-11T23:22:36.184Z,52.90
2023-05-11T23:25:04.161Z,52.90
2023-05-11T23:27:32.255Z,52.80
2023-05-11T23:30:00.938Z,52.80
2023-05-11T23:32:29.909Z,52.80
2023-05-11T23:34:57.488Z,52.80
2023-05-11T23:37:26.155Z,52.80
2023-05-11T23:39:54.124Z,52.80
2023-05-11T23:42:22.234Z,52.80
2023-05-11T23:44:50.053Z,52.70
2023-05-11T23:47:18.262Z,52.80
2023-05-11T23:49:46.131Z,52.80
2023-05-11T23:52:14.201Z,52.80
2023-05-11T23:54:42.444Z,52.80
2023-05-11T23:57:10.763Z,53.10
2023-05-11T23:59:38.576Z,53.40
